createdAt,value
2022-09-28T00:01:20.913Z,67.30
2022-09-28T00:03:49.844Z,67.20
2022-09-28T00:06:20.715Z,67.40
2022-09-28T00:08:50.284Z,67.40
2022-09-28T00:11:20.811Z,67.70
2022-09-28T00:13:53.302Z,67.60
2022-09-28T00:16:22.630Z,67.80
2022-09-28T00:18:51.335Z,67.60
2022-09-28T00:21:23.649Z,67.90
2022-09-28T00:24:22.930Z,68.30
2022-09-28T00:26:54.596Z,68.70
2022-09-28T00:29:27.038Z,68.50
2022-09-28T00:32:03.153Z,68.30
2022-09-28T00:34:33.307Z,68.30
2022-09-28T00:37:02.830Z,68.40
2022-09-28T00:39:32.724Z,68.40
2022-09-28T00:42:00.223Z,68.70
2022-09-28T00:44:27.273Z,68.90
2022-09-28T00:47:25.725Z,69.00
2022-09-28T00:50:03.014Z,69.20
2022-09-28T00:52:52.476Z,69.40
2022-09-28T00:55:25.366Z,69.80
2022-09-28T00:57:57.183Z,70.10
2022-09-28T01:00:24.718Z,70.30
2022-09-28T01:02:51.965Z,70.20
2022-09-28T01:05:20.907Z,70.10
2022-09-28T01:07:48.825Z,70.20
2022-09-28T01:10:16.434Z,70.20
2022-09-28T01:12:43.623Z,70.50
2022-09-28T01:15:11.440Z,70.60
2022-09-28T01:17:59.551Z,70.50
2022-09-28T01:21:10.443Z,70.70
2022-09-28T01:23:56.169Z,70.70
2022-09-28T01:27:11.269Z,71.00
2022-09-28T01:30:04.609Z,71.20
2022-09-28T01:32:43.722Z,71.10
2022-09-28T01:35:19.953Z,71.20
2022-09-28T01:38:00.685Z,71.20
2022-09-28T01:40:30.512Z,71.30
2022-09-28T01:43:06.943Z,71.40
2022-09-28T01:45:43.208Z,71.50
2022-09-28T01:48:13.290Z,71.90
2022-09-28T01:50:43.229Z,72.10
2022-09-28T01:53:23.182Z,72.30
2022-09-28T01:55:58.986Z,72.50
2022-09-28T01:58:38.412Z,72.60
2022-09-28T02:01:29.573Z,72.70
2022-09-28T02:04:42.695Z,72.70
2022-09-28T02:07:25.801Z,72.30
2022-09-28T02:09:58.590Z,72.20
2022-09-28T02:12:30.151Z,72.10
2022-09-28T02:15:14.443Z,71.90
2022-09-28T02:17:41.873Z,71.90
2022-09-28T02:20:10.242Z,72.00
2022-09-28T02:22:45.471Z,71.90
2022-09-28T02:25:27.544Z,71.70
2022-09-28T02:28:03.125Z,71.60
2022-09-28T02:30:32.706Z,71.50
2022-09-28T02:33:15.146Z,71.40
2022-09-28T02:35:43.116Z,71.50
2022-09-28T02:38:14.562Z,71.50
2022-09-28T02:40:46.597Z,71.80
2022-09-28T02:43:24.765Z,71.70
2022-09-28T02:46:05.934Z,71.00
2022-09-28T02:49:21.395Z,70.20
2022-09-28T02:52:30.250Z,68.90
2022-09-28T02:55:17.682Z,68.10
2022-09-28T02:58:07.139Z,67.50
2022-09-28T03:00:44.875Z,67.20
2022-09-28T03:03:20.182Z,67.30
2022-09-28T03:06:10.093Z,67.60
2022-09-28T03:08:59.947Z,68.20
2022-09-28T03:11:40.915Z,68.40
2022-09-28T03:14:08.370Z,68.80
2022-09-28T03:16:46.716Z,69.20
2022-09-28T03:19:16.325Z,69.20
2022-09-28T03:21:43.470Z,69.30
2022-09-28T03:24:11.281Z,69.40
2022-09-28T03:26:39.328Z,69.60
2022-09-28T03:29:07.047Z,69.60
2022-09-28T03:31:35.390Z,69.50
2022-09-28T03:34:03.126Z,69.60
2022-09-28T03:36:31.321Z,69.50
2022-09-28T03:38:59.637Z,69.70
2022-09-28T03:41:30.406Z,69.80
2022-09-28T03:43:57.573Z,69.80
2022-09-28T03:46:27.575Z,70.00
2022-09-28T03:49:01.934Z,70.30
2022-09-28T03:51:29.418Z,70.60
2022-09-28T03:53:56.513Z,70.90
2022-09-28T03:56:23.700Z,70.70
2022-09-28T03:58:51.783Z,70.30
2022-09-28T04:01:19.043Z,69.80
2022-09-28T04:03:48.096Z,69.50
2022-09-28T04:06:15.604Z,69.10
2022-09-28T04:08:43.607Z,68.90
2022-09-28T04:11:11.411Z,69.00
2022-09-28T04:13:38.685Z,69.10
2022-09-28T04:16:08.220Z,69.20
2022-09-28T04:18:36.473Z,69.30
2022-09-28T04:21:22.202Z,69.10
2022-09-28T04:24:04.714Z,69.30
2022-09-28T04:26:32.005Z,69.10
2022-09-28T04:29:17.204Z,69.00
2022-09-28T04:31:55.433Z,68.90
2022-09-28T04:34:33.126Z,68.80
2022-09-28T04:37:02.565Z,69.00
2022-09-28T04:39:29.912Z,69.00
2022-09-28T04:41:57.486Z,69.00
2022-09-28T04:44:24.711Z,69.20
2022-09-28T04:47:00.691Z,69.50
2022-09-28T04:49:49.484Z,69.60
2022-09-28T04:52:20.305Z,69.80
2022-09-28T04:54:50.877Z,69.80
2022-09-28T04:57:18.273Z,69.70
2022-09-28T04:59:45.486Z,69.40
2022-09-28T05:02:15.295Z,69.30
2022-09-28T05:05:12.133Z,69.40
2022-09-28T05:07:59.967Z,69.50
2022-09-28T05:10:27.639Z,69.30
2022-09-28T05:12:54.706Z,69.40
2022-09-28T05:15:21.848Z,69.70
2022-09-28T05:17:49.342Z,70.10
2022-09-28T05:20:41.992Z,70.50
2022-09-28T05:23:12.895Z,70.60
2022-09-28T05:25:43.091Z,71.10
2022-09-28T05:28:28.985Z,71.20
2022-09-28T05:31:15.283Z,71.30
2022-09-28T05:33:58.693Z,71.00
2022-09-28T05:36:27.568Z,71.30
2022-09-28T05:38:54.733Z,71.20
2022-09-28T05:41:21.883Z,70.90
2022-09-28T05:43:49.526Z,70.90
2022-09-28T05:46:17.687Z,70.70
2022-09-28T05:48:45.049Z,70.30
2022-09-28T05:51:12.314Z,69.60
2022-09-28T05:53:39.439Z,69.10
2022-09-28T05:56:06.819Z,68.40
2022-09-28T05:58:36.492Z,67.90
2022-09-28T06:01:03.750Z,67.40
2022-09-28T06:03:31.189Z,67.50
2022-09-28T06:06:01.865Z,67.40
2022-09-28T06:08:33.117Z,67.10
2022-09-28T06:11:35.575Z,66.80
2022-09-28T06:14:21.870Z,65.90
2022-09-28T06:16:50.278Z,64.90
2022-09-28T06:19:18.250Z,64.20
2022-09-28T06:22:09.159Z,63.90
2022-09-28T06:24:47.501Z,63.50
2022-09-28T06:27:14.749Z,63.20
2022-09-28T06:29:42.527Z,63.40
2022-09-28T06:32:09.695Z,63.40
2022-09-28T06:34:38.998Z,63.20
2022-09-28T06:37:06.251Z,63.30
2022-09-28T06:39:36.695Z,62.90
2022-09-28T06:42:04.348Z,62.70
2022-09-28T06:44:52.107Z,62.20
2022-09-28T06:47:39.513Z,62.00
2022-09-28T06:50:15.725Z,61.80
2022-09-28T06:52:52.846Z,61.30
2022-09-28T06:55:49.275Z,60.80
2022-09-28T06:58:20.058Z,60.40
2022-09-28T07:00:50.255Z,60.50
2022-09-28T07:03:22.146Z,60.40
2022-09-28T07:06:13.030Z,60.90
2022-09-28T07:09:21.820Z,59.70
2022-09-28T07:12:13.578Z,59.40
2022-09-28T07:15:01.008Z,59.20
2022-09-28T07:17:29.141Z,59.00
2022-09-28T07:20:05.104Z,58.80
2022-09-28T07:22:43.262Z,57.80
2022-09-28T07:25:17.047Z,58.00
2022-09-28T07:28:02.320Z,57.90
2022-09-28T07:30:52.537Z,57.30
2022-09-28T07:33:39.985Z,57.00
2022-09-28T07:36:36.523Z,56.50
2022-09-28T07:39:04.075Z,57.10
2022-09-28T07:41:34.179Z,57.10
2022-09-28T07:44:06.984Z,57.50
2022-09-28T07:46:37.152Z,57.60
2022-09-28T07:49:16.702Z,57.70
2022-09-28T07:52:14.682Z,57.60
2022-09-28T07:55:06.594Z,56.60
2022-09-28T07:58:03.209Z,56.20
2022-09-28T08:00:51.345Z,56.00
2022-09-28T08:03:22.512Z,56.00
2022-09-28T08:05:49.863Z,55.30
2022-09-28T08:08:17.499Z,54.00
2022-09-28T08:10:47.105Z,53.80
2022-09-28T08:13:27.002Z,53.50
2022-09-28T08:16:20.951Z,53.50
2022-09-28T08:18:56.235Z,53.50
2022-09-28T08:21:42.797Z,53.30
2022-09-28T08:24:10.632Z,53.30
2022-09-28T08:26:37.892Z,53.20
2022-09-28T08:29:06.398Z,52.50
2022-09-28T08:31:51.857Z,52.40
2022-09-28T08:34:37.889Z,51.30
2022-09-28T08:37:23.705Z,51.30
2022-09-28T08:40:24.889Z,51.20
2022-09-28T08:43:07.276Z,51.00
2022-09-28T08:46:12.818Z,51.60
2022-09-28T08:49:47.618Z,51.50
2022-09-28T08:52:23.597Z,51.00
2022-09-28T08:55:34.499Z,50.30
2022-09-28T08:58:13.496Z,49.60
2022-09-28T09:00:53.104Z,49.60
2022-09-28T09:03:32.179Z,49.40
2022-09-28T09:06:44.683Z,49.40
2022-09-28T09:09:25.998Z,48.50
2022-09-28T09:12:05.363Z,48.50
2022-09-28T09:14:39.050Z,49.20
2022-09-28T09:17:23.385Z,49.00
2022-09-28T09:20:47.830Z,49.00
2022-09-28T09:23:37.560Z,48.40
2022-09-28T09:26:24.458Z,47.90
2022-09-28T09:29:12.358Z,47.80
2022-09-28T09:32:07.413Z,47.30
2022-09-28T09:35:06.386Z,46.90
2022-09-28T09:38:00.251Z,47.10
2022-09-28T09:41:06.985Z,48.10
2022-09-28T09:44:28.057Z,48.60
2022-09-28T09:47:48.467Z,48.70
2022-09-28T09:50:44.957Z,47.50
2022-09-28T09:53:45.079Z,47.10
2022-09-28T09:56:36.267Z,47.20
2022-09-28T09:59:25.222Z,47.20
2022-09-28T10:02:30.121Z,47.50
2022-09-28T10:05:32.261Z,47.80
2022-09-28T10:08:08.444Z,47.50
2022-09-28T10:10:41.126Z,46.60
2022-09-28T10:13:11.927Z,46.60
2022-09-28T10:15:41.390Z,45.30
2022-09-28T10:18:36.007Z,45.00
2022-09-28T10:21:40.761Z,44.30
2022-09-28T10:24:35.060Z,43.30
2022-09-28T10:27:06.839Z,42.90
2022-09-28T10:29:56.147Z,43.10
2022-09-28T10:32:48.921Z,43.60
2022-09-28T10:35:19.934Z,42.80
2022-09-28T10:38:00.391Z,43.00
2022-09-28T10:40:40.198Z,42.70
2022-09-28T10:43:38.609Z,43.20
2022-09-28T10:46:15.069Z,42.70
2022-09-28T10:48:57.926Z,42.70
2022-09-28T10:51:49.847Z,43.30
2022-09-28T10:54:25.986Z,43.10
2022-09-28T10:56:55.024Z,43.20
2022-09-28T10:59:53.435Z,42.90
2022-09-28T11:02:42.971Z,42.40
2022-09-28T11:05:28.015Z,41.10
2022-09-28T11:08:02.070Z,40.50
2022-09-28T11:10:37.486Z,39.70
2022-09-28T11:13:22.814Z,40.20
2022-09-28T11:16:00.366Z,39.80
2022-09-28T11:18:35.229Z,39.80
2022-09-28T11:21:14.309Z,41.10
2022-09-28T11:24:27.386Z,41.50
2022-09-28T11:27:01.288Z,42.90
2022-09-28T11:29:43.086Z,43.10
2022-09-28T11:32:41.339Z,43.60
2022-09-28T11:35:28.687Z,44.60
2022-09-28T11:38:26.990Z,43.50
2022-09-28T11:41:52.008Z,42.80
2022-09-28T11:44:33.289Z,42.70
2022-09-28T11:47:31.790Z,43.50
2022-09-28T11:50:24.328Z,43.40
2022-09-28T11:53:14.252Z,42.80
2022-09-28T11:55:54.882Z,40.30
2022-09-28T11:58:47.746Z,39.50
2022-09-28T12:01:36.189Z,38.20
2022-09-28T12:04:31.355Z,38.00
2022-09-28T12:07:04.887Z,37.10
2022-09-28T12:09:41.401Z,36.50
2022-09-28T12:12:35.233Z,35.90
2022-09-28T12:15:26.852Z,36.90
2022-09-28T12:18:03.624Z,36.80
2022-09-28T12:20:42.446Z,36.50
2022-09-28T12:23:15.974Z,36.70
2022-09-28T12:25:55.835Z,37.30
2022-09-28T12:28:48.162Z,38.30
2022-09-28T12:31:37.671Z,39.00
2022-09-28T12:34:05.789Z,39.10
2022-09-28T12:36:43.782Z,36.70
2022-09-28T12:39:40.623Z,34.30
2022-09-28T12:43:04.120Z,34.30
2022-09-28T12:46:11.707Z,34.40
2022-09-28T12:49:03.058Z,35.20
2022-09-28T12:51:57.666Z,35.30
2022-09-28T12:54:56.076Z,35.70
2022-09-28T12:57:26.484Z,36.50
2022-09-28T13:00:16.058Z,36.30
2022-09-28T13:03:04.144Z,35.70
2022-09-28T13:05:50.146Z,36.60
2022-09-28T13:08:49.421Z,36.40
2022-09-28T13:11:34.300Z,36.50
2022-09-28T13:14:35.842Z,36.50
2022-09-28T13:17:36.224Z,37.80
2022-09-28T13:20:46.944Z,38.10
2022-09-28T13:23:18.039Z,38.50
2022-09-28T13:26:14.003Z,38.90
2022-09-28T13:28:43.699Z,39.50
2022-09-28T13:31:11.889Z,40.40
2022-09-28T13:33:44.068Z,41.10
2022-09-28T13:36:26.757Z,41.20
2022-09-28T13:38:56.078Z,41.10
2022-09-28T13:41:47.602Z,41.00
2022-09-28T13:44:22.376Z,41.40
2022-09-28T13:47:04.756Z,42.00
2022-09-28T13:49:37.842Z,42.20
2022-09-28T13:52:54.583Z,42.20
2022-09-28T13:55:37.898Z,42.10
2022-09-28T13:58:17.813Z,42.10
2022-09-28T14:01:19.247Z,42.50
2022-09-28T14:04:31.958Z,42.50
2022-09-28T14:07:21.119Z,43.00
2022-09-28T14:10:08.020Z,43.10
2022-09-28T14:12:35.247Z,43.50
2022-09-28T14:15:03.263Z,43.50
2022-09-28T14:17:33.448Z,43.50
2022-09-28T14:20:05.153Z,42.20
2022-09-28T14:22:54.123Z,40.70
2022-09-28T14:25:23.865Z,40.20
2022-09-28T14:28:05.434Z,40.00
2022-09-28T14:30:49.085Z,39.70
2022-09-28T14:33:24.502Z,39.80
2022-09-28T14:36:06.524Z,38.80
2022-09-28T14:39:04.061Z,41.30
2022-09-28T14:41:34.392Z,43.10
2022-09-28T14:44:04.719Z,43.40
2022-09-28T14:46:35.555Z,43.80
2022-09-28T14:49:05.799Z,45.10
2022-09-28T14:51:38.017Z,45.60
2022-09-28T14:54:06.671Z,45.80
2022-09-28T14:56:57.133Z,46.40
2022-09-28T14:59:27.955Z,47.40
2022-09-28T15:02:02.777Z,48.00
2022-09-28T15:04:34.578Z,49.10
2022-09-28T15:07:01.844Z,48.90
2022-09-28T15:09:29.799Z,49.10
2022-09-28T15:12:08.533Z,49.50
2022-09-28T15:14:53.485Z,49.70
2022-09-28T15:17:28.051Z,49.30
2022-09-28T15:20:24.107Z,49.00
2022-09-28T15:22:57.419Z,49.00
2022-09-28T15:25:29.744Z,49.90
2022-09-28T15:28:13.431Z,50.40
2022-09-28T15:30:40.578Z,51.40
2022-09-28T15:33:45.442Z,52.00
2022-09-28T15:36:46.576Z,52.70
2022-09-28T15:39:27.353Z,53.50
2022-09-28T15:41:54.559Z,53.80
2022-09-28T15:44:40.290Z,54.70
2022-09-28T15:47:26.318Z,55.60
2022-09-28T15:49:58.861Z,56.50
2022-09-28T15:52:43.147Z,57.20
2022-09-28T15:55:19.252Z,58.00
2022-09-28T15:57:47.485Z,58.80
2022-09-28T16:00:23.539Z,59.20
2022-09-28T16:03:05.583Z,59.80
2022-09-28T16:05:39.387Z,60.00
2022-09-28T16:08:24.841Z,59.70
2022-09-28T16:11:20.564Z,60.50
2022-09-28T16:14:06.102Z,61.80
2022-09-28T16:16:48.097Z,62.60
2022-09-28T16:19:37.832Z,63.00
2022-09-28T16:22:08.193Z,63.60
2022-09-28T16:24:38.465Z,64.20
2022-09-28T16:27:25.087Z,64.60
2022-09-28T16:30:24.421Z,64.70
2022-09-28T16:32:54.624Z,64.10
2022-09-28T16:35:26.004Z,64.30
2022-09-28T16:38:09.304Z,64.80
2022-09-28T16:40:49.554Z,64.80
2022-09-28T16:43:19.701Z,65.10
2022-09-28T16:45:47.235Z,65.80
2022-09-28T16:48:20.022Z,66.30
2022-09-28T16:50:47.507Z,66.80
2022-09-28T16:53:36.078Z,68.00
2022-09-28T16:56:04.679Z,68.20
2022-09-28T16:58:32.214Z,68.20
2022-09-28T17:01:00.283Z,68.30
2022-09-28T17:03:28.569Z,68.60
2022-09-28T17:05:58.630Z,68.70
2022-09-28T17:08:26.042Z,68.60
2022-09-28T17:11:18.015Z,68.60
2022-09-28T17:13:47.354Z,68.90
2022-09-28T17:16:32.232Z,68.80
2022-09-28T17:19:19.276Z,69.30
2022-09-28T17:21:47.270Z,69.40
2022-09-28T17:24:14.475Z,69.60
2022-09-28T17:26:43.893Z,69.40
2022-09-28T17:29:14.621Z,69.30
2022-09-28T17:31:44.201Z,69.20
2022-09-28T17:34:12.960Z,69.30
2022-09-28T17:36:42.578Z,69.30
2022-09-28T17:39:15.984Z,69.50
2022-09-28T17:41:43.224Z,68.40
2022-09-28T17:44:10.414Z,68.50
2022-09-28T17:46:40.707Z,68.70
2022-09-28T17:49:11.031Z,68.80
2022-09-28T17:51:38.473Z,68.40
2022-09-28T17:54:08.294Z,68.20
2022-09-28T17:56:37.014Z,68.30
2022-09-28T17:59:06.822Z,69.30
2022-09-28T18:01:37.997Z,69.60
2022-09-28T18:04:08.236Z,70.10
2022-09-28T18:06:37.386Z,70.30
2022-09-28T18:09:05.458Z,70.60
2022-09-28T18:11:33.567Z,70.50
2022-09-28T18:14:01.006Z,70.50
2022-09-28T18:16:29.354Z,70.80
2022-09-28T18:18:56.623Z,71.00
2022-09-28T18:21:23.874Z,71.00
2022-09-28T18:23:51.174Z,70.30
2022-09-28T18:26:21.583Z,70.20
2022-09-28T18:28:49.516Z,70.40
2022-09-28T18:31:19.225Z,70.50
2022-09-28T18:36:36.047Z,71.00
2022-09-28T18:39:03.965Z,72.40
2022-09-28T18:41:32.528Z,73.40
2022-09-28T18:44:02.577Z,73.80
2022-09-28T18:46:34.325Z,73.90
2022-09-28T18:49:01.453Z,73.70
2022-09-28T18:51:28.820Z,73.90
2022-09-28T18:53:56.271Z,73.90
2022-09-28T18:56:23.561Z,73.90
2022-09-28T18:58:53.678Z,73.10
2022-09-28T19:01:30.745Z,73.20
2022-09-28T19:04:03.158Z,73.10
2022-09-28T19:06:31.986Z,73.00
2022-09-28T19:08:59.470Z,70.30
2022-09-28T19:11:27.572Z,68.70
2022-09-28T19:13:56.107Z,67.60
2022-09-28T19:16:33.764Z,65.30
2022-09-28T19:19:03.343Z,64.30
2022-09-28T19:21:31.110Z,63.80
2022-09-28T19:24:01.396Z,63.20
2022-09-28T19:26:29.352Z,62.70
2022-09-28T19:28:58.058Z,62.90
2022-09-28T19:31:26.425Z,62.90
2022-09-28T19:33:53.619Z,62.90
2022-09-28T19:36:24.104Z,63.20
2022-09-28T19:38:52.925Z,63.30
2022-09-28T19:41:43.595Z,63.40
2022-09-28T19:44:13.758Z,63.30
2022-09-28T19:46:42.322Z,63.40
2022-09-28T19:49:25.507Z,63.40
2022-09-28T19:52:14.731Z,63.60
2022-09-28T19:54:56.793Z,63.80
2022-09-28T19:57:34.979Z,63.80
2022-09-28T20:00:03.911Z,63.80
2022-09-28T20:02:39.611Z,63.30
2022-09-28T20:05:09.635Z,63.30
2022-09-28T20:07:37.187Z,62.70
2022-09-28T20:10:04.664Z,62.40
2022-09-28T20:12:32.030Z,62.30
2022-09-28T20:14:59.276Z,62.20
2022-09-28T20:17:27.866Z,62.10
2022-09-28T20:19:54.951Z,62.10
2022-09-28T20:22:22.135Z,62.40
2022-09-28T20:24:49.433Z,62.50
2022-09-28T20:27:17.271Z,62.70
2022-09-28T20:29:47.265Z,63.00
2022-09-28T20:32:15.424Z,63.30
2022-09-28T20:34:42.671Z,63.40
2022-09-28T20:37:14.049Z,63.60
2022-09-28T20:39:44.824Z,63.90
2022-09-28T20:42:16.320Z,64.00
2022-09-28T20:44:44.068Z,64.20
2022-09-28T20:47:32.402Z,64.50
2022-09-28T20:50:23.684Z,64.70
2022-09-28T20:52:53.326Z,64.70
2022-09-28T20:55:30.066Z,65.00
2022-09-28T20:58:21.362Z,65.30
2022-09-28T21:00:52.525Z,65.30
2022-09-28T21:03:20.062Z,65.60
2022-09-28T21:05:50.801Z,65.70
2022-09-28T21:08:18.081Z,65.80
2022-09-28T21:10:45.247Z,65.90
2022-09-28T21:13:12.741Z,66.00
2022-09-28T21:15:41.311Z,66.70
2022-09-28T21:18:08.493Z,67.10
2022-09-28T21:20:35.809Z,67.30
2022-09-28T21:23:02.947Z,67.60
2022-09-28T21:25:30.128Z,67.90
2022-09-28T21:27:57.325Z,68.00
2022-09-28T21:30:24.663Z,68.10
2022-09-28T21:32:52.264Z,68.30
2022-09-28T21:35:19.523Z,68.50
2022-09-28T21:37:46.787Z,68.60
2022-09-28T21:40:14.341Z,68.80
2022-09-28T21:42:41.725Z,69.20
2022-09-28T21:45:12.441Z,69.20
2022-09-28T21:47:43.699Z,69.20
2022-09-28T21:50:11.048Z,69.10
2022-09-28T21:52:38.200Z,69.10
2022-09-28T21:55:06.007Z,69.10
2022-09-28T21:57:33.259Z,68.80
2022-09-28T22:00:00.779Z,68.70
2022-09-28T22:02:30.499Z,68.80
2022-09-28T22:04:58.281Z,68.70
2022-09-28T22:07:26.054Z,69.20
2022-09-28T22:09:53.714Z,69.00
2022-09-28T22:12:20.969Z,69.10
2022-09-28T22:14:49.137Z,69.20
2022-09-28T22:17:16.258Z,69.10
2022-09-28T22:19:43.676Z,69.00
2022-09-28T22:22:10.862Z,69.00
2022-09-28T22:24:39.626Z,69.50
2022-09-28T22:27:06.764Z,69.70
2022-09-28T22:29:34.064Z,70.00
2022-09-28T22:32:03.213Z,70.40
2022-09-28T22:34:31.987Z,70.80
2022-09-28T22:37:02.187Z,70.90
2022-09-28T22:39:34.332Z,70.90
2022-09-28T22:42:05.365Z,70.80
2022-09-28T22:44:32.567Z,70.90
2022-09-28T22:47:00.768Z,71.00
2022-09-28T22:49:28.124Z,71.20
2022-09-28T22:51:55.250Z,71.40
2022-09-28T22:54:22.497Z,71.50
2022-09-28T22:56:49.682Z,71.40
2022-09-28T22:59:17.445Z,71.40
2022-09-28T23:01:46.899Z,71.30
2022-09-28T23:04:14.295Z,71.10
2022-09-28T23:06:41.490Z,71.00
2022-09-28T23:09:09.177Z,70.50
2022-09-28T23:11:38.101Z,70.20
2022-09-28T23:14:05.948Z,69.90
2022-09-28T23:16:33.463Z,69.70
2022-09-28T23:19:00.760Z,69.70
2022-09-28T23:21:29.430Z,69.80
2022-09-28T23:24:00.116Z,69.90
2022-09-28T23:26:30.144Z,69.90
2022-09-28T23:28:58.304Z,70.00
2022-09-28T23:31:28.613Z,70.20
2022-09-28T23:34:05.931Z,70.30
2022-09-28T23:36:33.861Z,70.40
2022-09-28T23:39:01.151Z,70.50
2022-09-28T23:41:28.603Z,70.60
2022-09-28T23:43:55.933Z,70.60
2022-09-28T23:46:23.396Z,70.70
2022-09-28T23:48:50.907Z,70.80
2022-09-28T23:51:18.697Z,70.90
2022-09-28T23:53:46.218Z,71.00
2022-09-28T23:56:14.586Z,71.00
2022-09-28T23:58:41.997Z,70.90
